Time;durP1;ratioP1;P1;durP2;ratioP2;P2;SDS_P1;SDS_P2;PMS_P1;PMS_P2;Temp;Humidity;BMP_temperature;BMP_pressure;BME280_temperature;BME280_humidity;BME280_pressure;Samples;Min_cycle;Max_cycle;Signal;HPM_P1;HPM_P2
2023/02/22 00:01:00;;;;;;;8.30;1.58;;;24.20;60.60;;;;;;5140432;23;20023;-46
2023/02/22 00:03:25;;;;;;;5.55;1.58;;;24.30;60.60;;;;;;5142135;23;20020;-48
2023/02/22 00:05:52;;;;;;;4.30;1.40;;;24.30;60.30;;;;;;5140168;23;20063;-46
2023/02/22 00:08:16;;;;;;;2.72;0.93;;;24.20;60.20;;;;;;5133483;23;20298;-49
2023/02/22 00:10:39;;;;;;;2.83;1.08;;;24.20;60.20;;;;;;5139447;23;20055;-46
2023/02/22 00:13:01;;;;;;;4.13;1.60;;;24.20;60.20;;;;;;5141605;23;20016;-46
2023/02/22 00:15:27;;;;;;;3.67;1.25;;;24.20;60.30;;;;;;5142320;23;20035;-46
2023/02/22 00:17:50;;;;;;;3.53;0.95;;;24.20;60.20;;;;;;5142332;23;20339;-45
2023/02/22 00:20:16;;;;;;;3.70;1.58;;;24.20;60.10;;;;;;5140445;23;20024;-47
2023/02/22 00:22:39;;;;;;;2.78;1.10;;;24.20;60.20;;;;;;5133562;23;20020;-45
2023/02/22 00:25:01;;;;;;;2.00;0.80;;;24.20;60.20;;;;;;5139706;23;20087;-46
2023/02/22 00:27:24;;;;;;;3.97;1.55;;;24.20;60.20;;;;;;5141660;23;20447;-47
2023/02/22 00:29:47;;;;;;;3.78;1.25;;;24.20;60.40;;;;;;5141339;23;20336;-45
2023/02/22 00:32:09;;;;;;;3.20;1.02;;;24.20;60.20;;;;;;5142379;23;20095;-45
2023/02/22 00:34:32;;;;;;;2.92;1.02;;;24.20;60.20;;;;;;5131998;23;20032;-47
2023/02/22 00:36:54;;;;;;;2.17;0.98;;;24.20;60.20;;;;;;5138883;23;20027;-46
2023/02/22 00:39:17;;;;;;;4.68;1.17;;;24.20;60.20;;;;;;5141584;23;20008;-48
2023/02/22 00:41:39;;;;;;;4.40;1.27;;;24.10;60.10;;;;;;5140732;23;20031;-46
2023/02/22 00:44:02;;;;;;;4.85;1.55;;;24.10;60.20;;;;;;5141999;23;20013;-46
2023/02/22 00:46:24;;;;;;;2.72;1.10;;;24.20;60.10;;;;;;5140527;23;20362;-45
2023/02/22 00:48:47;;;;;;;2.53;1.15;;;24.10;60.00;;;;;;5140146;23;20057;-48
2023/02/22 00:51:09;;;;;;;3.80;1.10;;;24.10;60.10;;;;;;5140134;23;20090;-50
2023/02/22 00:53:31;;;;;;;3.25;1.30;;;24.20;60.00;;;;;;5141960;23;20442;-45
2023/02/22 00:55:54;;;;;;;2.63;0.90;;;24.10;59.90;;;;;;5140032;23;20072;-46
2023/02/22 00:58:17;;;;;;;5.45;1.45;;;24.10;59.90;;;;;;5141636;23;20020;-45
2023/02/22 01:00:41;;;;;;;3.92;1.13;;;24.10;60.00;;;;;;5132287;23;20051;-47
2023/02/22 01:03:05;;;;;;;3.88;1.33;;;24.10;60.00;;;;;;5142515;23;20394;-48
2023/02/22 01:05:29;;;;;;;4.05;1.05;;;24.10;59.90;;;;;;5143093;23;20016;-46
2023/02/22 01:07:51;;;;;;;;;;;24.10;59.90;;;;;;5144327;23;20450;-46
2023/02/22 01:10:14;;;;;;;3.75;1.10;;;24.10;60.00;;;;;;5143406;23;19907;-48
2023/02/22 01:12:37;;;;;;;2.40;0.93;;;24.10;60.00;;;;;;5142619;23;20139;-47
2023/02/22 01:14:59;;;;;;;2.90;1.13;;;24.10;60.00;;;;;;5143542;23;20534;-49
2023/02/22 01:17:25;;;;;;;3.17;1.13;;;24.10;60.10;;;;;;5143346;23;20102;-46
2023/02/22 01:19:47;;;;;;;3.28;1.00;;;24.10;60.20;;;;;;5142291;23;20016;-47
2023/02/22 01:22:10;;;;;;;3.30;1.20;;;24.10;60.10;;;;;;5143302;23;20020;-46
2023/02/22 01:24:32;;;;;;;2.90;1.08;;;24.10;60.40;;;;;;5143279;23;20012;-46
2023/02/22 01:26:55;;;;;;;3.45;1.38;;;24.10;60.30;;;;;;5141100;23;20028;-45
2023/02/22 01:29:20;;;;;;;3.10;1.13;;;24.00;60.30;;;;;;5133032;23;20092;-45
2023/02/22 01:31:53;;;;;;;3.10;1.00;;;24.00;60.50;;;;;;5142735;23;20450;-46
2023/02/22 01:34:17;;;;;;;4.07;1.30;;;24.00;60.50;;;;;;5132625;23;20024;-47
2023/02/22 01:36:40;;;;;;;5.53;1.20;;;24.00;60.60;;;;;;5142301;23;20182;-45
2023/02/22 01:39:02;;;;;;;3.15;1.25;;;24.00;60.60;;;;;;5134623;23;20055;-48
2023/02/22 01:41:25;;;;;;;3.42;0.95;;;24.00;60.70;;;;;;5142687;23;20099;-46
2023/02/22 01:43:48;;;;;;;3.55;1.15;;;24.00;60.50;;;;;;5143539;23;20479;-45
2023/02/22 01:46:22;;;;;;;2.55;1.00;;;24.00;60.50;;;;;;5142977;23;20016;-50
2023/02/22 01:49:06;;;;;;;3.05;1.20;;;24.00;60.70;;;;;;5142787;23;20024;-46
2023/02/22 01:51:36;;;;;;;2.70;1.23;;;24.00;60.70;;;;;;5130737;23;20437;-46
2023/02/22 01:54:03;;;;;;;2.45;0.88;;;24.00;60.80;;;;;;5140144;23;20017;-46
2023/02/22 01:56:29;;;;;;;4.00;1.27;;;24.00;60.70;;;;;;5133725;23;20012;-47
2023/02/22 01:59:08;;;;;;;3.38;1.33;;;24.00;60.80;;;;;;5141424;23;20578;-49
2023/02/22 02:01:30;;;;;;;3.50;1.30;;;23.90;60.70;;;;;;5143250;23;20009;-48
2023/02/22 02:03:58;;;;;;;1.85;0.88;;;24.00;60.80;;;;;;5142800;23;20023;-51
2023/02/22 02:06:21;;;;;;;3.20;0.90;;;24.00;60.90;;;;;;5142905;23;20021;-46
2023/02/22 02:08:57;;;;;;;2.90;1.20;;;24.00;60.90;;;;;;5142850;23;20447;-47
2023/02/22 02:11:24;;;;;;;3.53;1.35;;;23.90;60.80;;;;;;5140451;23;20401;-47
2023/02/22 02:13:50;;;;;;;2.78;1.00;;;23.90;60.90;;;;;;5132831;23;20021;-45
2023/02/22 02:16:13;;;;;;;2.30;0.63;;;23.90;60.90;;;;;;5141383;23;20395;-47
2023/02/22 02:18:36;;;;;;;2.22;0.63;;;23.90;60.90;;;;;;5141248;23;20043;-47
2023/02/22 02:21:36;;;;;;;2.42;0.80;;;23.90;61.00;;;;;;5141351;23;20021;-48
2023/02/22 02:24:11;;;;;;;2.42;1.00;;;23.90;61.10;;;;;;5127744;23;20063;-46
2023/02/22 02:26:36;;;;;;;2.10;0.80;;;23.90;61.10;;;;;;5142505;23;20017;-46
2023/02/22 02:29:14;;;;;;;1.42;0.60;;;23.90;61.10;;;;;;5142699;23;20051;-48
2023/02/22 02:32:03;;;;;;;2.25;0.90;;;23.90;61.20;;;;;;5142959;23;20410;-49
2023/02/22 02:34:45;;;;;;;2.35;1.05;;;23.90;61.30;;;;;;5141421;23;20453;-50
2023/02/22 02:37:27;;;;;;;2.75;1.00;;;23.90;61.30;;;;;;5143275;23;20047;-49
2023/02/22 02:40:29;;;;;;;1.95;0.70;;;23.90;61.30;;;;;;5140444;23;20533;-47
2023/02/22 02:43:01;;;;;;;1.52;0.70;;;23.90;61.40;;;;;;5128442;23;20024;-47
2023/02/22 02:45:48;;;;;;;2.55;0.93;;;23.90;61.40;;;;;;5142993;23;20497;-49
2023/02/22 02:48:15;;;;;;;2.08;0.73;;;23.90;61.50;;;;;;5143037;23;20032;-49
2023/02/22 02:50:47;;;;;;;1.80;0.70;;;23.90;61.50;;;;;;5142789;23;20043;-49
2023/02/22 02:53:10;;;;;;;3.45;1.25;;;23.90;61.50;;;;;;5142818;23;20067;-47
2023/02/22 02:55:35;;;;;;;3.83;1.10;;;23.90;61.50;;;;;;5140723;23;20017;-46
2023/02/22 02:57:59;;;;;;;2.47;0.70;;;23.90;61.60;;;;;;5142488;23;20048;-44
2023/02/22 03:00:26;;;;;;;2.83;0.90;;;23.90;61.70;;;;;;5142148;23;20024;-46
2023/02/22 03:03:22;;;;;;;2.65;1.27;;;23.90;61.70;;;;;;5141678;23;20017;-46
2023/02/22 03:06:03;;;;;;;2.88;1.02;;;23.90;61.80;;;;;;5140493;23;20017;-48
2023/02/22 03:08:25;;;;;;;2.25;1.00;;;23.90;61.90;;;;;;5140471;23;20055;-46
2023/02/22 03:11:05;;;;;;;3.47;1.13;;;23.90;61.90;;;;;;5143232;23;20020;-46
2023/02/22 03:17:23;;;;;;;4.53;1.58;;;23.80;61.90;;;;;;5139005;23;20158;-50
2023/02/22 03:20:00;;;;;;;4.45;1.23;;;23.90;62.00;;;;;;5096120;23;20020;-50
2023/02/22 03:22:31;;;;;;;2.45;1.05;;;23.90;61.90;;;;;;5142797;23;20055;-48
2023/02/22 03:25:10;;;;;;;2.30;0.88;;;23.90;61.90;;;;;;5133914;23;20016;-50
2023/02/22 03:27:42;;;;;;;4.60;1.10;;;23.90;62.00;;;;;;5140791;23;20024;-48
2023/02/22 03:30:11;;;;;;;3.55;1.20;;;23.80;62.00;;;;;;5133996;23;20008;-47
2023/02/22 03:32:38;;;;;;;2.33;0.98;;;23.90;62.20;;;;;;5142129;23;20016;-50
2023/02/22 03:35:26;;;;;;;2.92;1.05;;;23.80;62.20;;;;;;5142163;23;20058;-48
2023/02/22 03:37:54;;;;;;;2.30;1.08;;;23.80;62.20;;;;;;5141982;23;20095;-46
2023/02/22 03:40:30;;;;;;;3.38;0.90;;;23.80;62.40;;;;;;5129461;23;20559;-48
2023/02/22 03:43:13;;;;;;;3.00;1.13;;;23.80;62.40;;;;;;5139777;23;20071;-46
2023/02/22 03:45:38;;;;;;;3.55;1.30;;;23.80;62.50;;;;;;5133281;23;20384;-49
2023/02/22 03:48:26;;;;;;;2.17;0.80;;;23.80;62.50;;;;;;5137800;23;20619;-47
2023/02/22 03:50:50;;;;;;;3.45;1.23;;;23.80;62.50;;;;;;5089906;23;20321;-48
2023/02/22 03:53:12;;;;;;;3.03;1.10;;;23.80;62.70;;;;;;5135854;23;20020;-47
2023/02/22 03:55:35;;;;;;;4.72;1.23;;;23.80;62.70;;;;;;5135669;23;20023;-51
2023/02/22 03:58:08;;;;;;;3.78;1.33;;;23.80;62.80;;;;;;5123990;23;20024;-46
2023/02/22 04:00:33;;;;;;;2.88;1.10;;;23.80;63.00;;;;;;5124487;23;20071;-46
2023/02/22 04:02:55;;;;;;;3.17;0.85;;;23.80;63.00;;;;;;5134266;23;20251;-47
2023/02/22 04:05:19;;;;;;;3.40;1.40;;;23.80;62.90;;;;;;5136695;23;20024;-50
2023/02/22 04:07:41;;;;;;;3.05;1.30;;;23.80;63.00;;;;;;5124729;23;20863;-45
2023/02/22 04:10:07;;;;;;;2.80;1.17;;;23.80;63.20;;;;;;5135581;23;20609;-46
2023/02/22 04:12:29;;;;;;;2.58;1.00;;;23.80;63.30;;;;;;5135842;23;20016;-48
2023/02/22 04:14:52;;;;;;;4.40;1.30;;;23.80;63.20;;;;;;5134383;23;20342;-49
2023/02/22 04:17:14;;;;;;;3.10;0.90;;;23.80;63.30;;;;;;5137618;23;20013;-46
2023/02/22 04:19:36;;;;;;;2.65;0.93;;;23.80;63.40;;;;;;5136368;23;20473;-46
2023/02/22 04:21:59;;;;;;;2.78;1.10;;;23.80;63.30;;;;;;5132209;23;20016;-45
2023/02/22 04:24:21;;;;;;;2.80;1.00;;;23.80;63.40;;;;;;5119016;23;20284;-50
2023/02/22 04:26:44;;;;;;;3.13;1.20;;;23.80;63.40;;;;;;5128788;23;20016;-47
2023/02/22 04:29:07;;;;;;;4.30;1.02;;;23.80;63.40;;;;;;5134705;23;20131;-46
2023/02/22 04:31:30;;;;;;;3.47;1.27;;;23.80;63.40;;;;;;5121811;23;20920;-46
2023/02/22 04:33:52;;;;;;;2.10;0.98;;;23.80;63.30;;;;;;5129073;23;20258;-45
2023/02/22 04:36:15;;;;;;;3.90;0.95;;;23.80;63.30;;;;;;5128338;23;20027;-49
2023/02/22 04:38:37;;;;;;;2.63;1.10;;;23.80;63.20;;;;;;5128733;23;20046;-48
2023/02/22 04:40:59;;;;;;;2.38;0.80;;;23.90;63.40;;;;;;5132580;23;20016;-48
2023/02/22 04:43:22;;;;;;;3.05;1.35;;;23.80;63.30;;;;;;5133509;23;20112;-49
2023/02/22 04:45:45;;;;;;;2.10;1.00;;;23.80;63.30;;;;;;5123342;23;20036;-45
2023/02/22 04:48:08;;;;;;;3.47;1.40;;;23.80;63.40;;;;;;5120739;23;20079;-50
2023/02/22 04:50:30;;;;;;;2.15;0.80;;;23.80;63.30;;;;;;5134527;23;20278;-47
2023/02/22 04:52:53;;;;;;;3.03;1.23;;;23.80;63.40;;;;;;5133774;23;20020;-48
2023/02/22 04:55:15;;;;;;;4.15;1.58;;;23.80;63.30;;;;;;5133752;23;20389;-47
2023/02/22 04:57:38;;;;;;;3.20;0.95;;;23.80;63.40;;;;;;5132009;23;20051;-48
2023/02/22 05:00:00;;;;;;;5.82;1.38;;;23.80;63.90;;;;;;5134718;23;20024;-49
2023/02/22 05:02:23;;;;;;;5.15;1.20;;;23.80;63.20;;;;;;5133590;23;20016;-49
2023/02/22 05:04:46;;;;;;;2.55;0.65;;;23.80;63.00;;;;;;5132516;23;20064;-49
2023/02/22 05:07:08;;;;;;;2.30;1.00;;;23.80;62.80;;;;;;5124301;23;20401;-45
2023/02/22 05:09:33;;;;;;;2.15;0.73;;;23.80;62.70;;;;;;5133672;23;20335;-48
2023/02/22 05:11:56;;;;;;;1.02;0.63;;;23.80;62.70;;;;;;5133631;23;20020;-45
2023/02/22 05:14:19;;;;;;;2.63;1.10;;;23.80;62.60;;;;;;5133864;23;20210;-48
2023/02/22 05:16:41;;;;;;;2.63;1.13;;;23.80;62.60;;;;;;5120208;23;20017;-48
2023/02/22 05:19:04;;;;;;;2.25;0.90;;;23.80;62.50;;;;;;5133800;23;20021;-46
2023/02/22 05:21:30;;;;;;;4.18;1.10;;;23.80;62.50;;;;;;5123748;23;20017;-47
2023/02/22 05:23:52;;;;;;;2.63;1.02;;;23.80;62.50;;;;;;5132589;23;20021;-48
2023/02/22 05:26:17;;;;;;;3.30;1.05;;;23.80;62.40;;;;;;5132240;23;20464;-46
2023/02/22 05:28:40;;;;;;;3.88;1.15;;;23.80;62.40;;;;;;5132065;23;20484;-46
2023/02/22 05:31:09;;;;;;;4.22;1.20;;;23.80;62.40;;;;;;5134174;23;20488;-47
2023/02/22 05:33:31;;;;;;;3.13;0.98;;;23.80;62.30;;;;;;5133237;23;20051;-48
2023/02/22 05:35:54;;;;;;;3.20;0.95;;;23.80;62.30;;;;;;5133926;23;20075;-47
2023/02/22 05:38:17;;;;;;;1.90;0.93;;;23.80;62.40;;;;;;5125484;23;20481;-46
2023/02/22 05:40:40;;;;;;;2.97;1.35;;;23.70;62.40;;;;;;5125110;23;20016;-46
2023/02/22 05:43:03;;;;;;;5.33;1.37;;;23.70;62.40;;;;;;5130489;23;20078;-46
2023/02/22 05:45:27;;;;;;;2.80;0.80;;;23.70;62.50;;;;;;5133967;23;20273;-45
2023/02/22 05:47:50;;;;;;;2.05;0.88;;;23.70;62.50;;;;;;5132066;23;20024;-47
2023/02/22 05:50:13;;;;;;;4.13;1.05;;;23.70;62.50;;;;;;5132348;23;20347;-46
2023/02/22 05:52:39;;;;;;;3.17;0.90;;;23.70;62.50;;;;;;5125431;23;20059;-49
2023/02/22 05:55:01;;;;;;;3.40;1.55;;;23.70;62.50;;;;;;5135896;23;20426;-46
2023/02/22 05:57:23;;;;;;;2.88;0.90;;;23.70;62.50;;;;;;5139145;23;20024;-45
2023/02/22 05:59:46;;;;;;;2.10;0.77;;;23.80;62.60;;;;;;5141410;23;20012;-46
2023/02/22 06:02:09;;;;;;;2.22;0.90;;;23.70;62.50;;;;;;5141141;23;20023;-45
2023/02/22 06:04:31;;;;;;;2.88;1.02;;;23.70;62.40;;;;;;5142178;23;20499;-49
2023/02/22 06:06:53;;;;;;;1.95;1.10;;;23.70;62.20;;;;;;5141082;23;20074;-49
2023/02/22 06:09:16;;;;;;;2.65;1.00;;;23.70;62.10;;;;;;5143382;23;20469;-48
2023/02/22 06:11:38;;;;;;;2.08;0.73;;;23.70;62.00;;;;;;5143028;23;20499;-45
2023/02/22 06:14:01;;;;;;;3.13;1.10;;;23.70;61.90;;;;;;5133444;23;20012;-47
2023/02/22 06:16:23;;;;;;;2.58;1.20;;;23.70;61.80;;;;;;5141593;23;20047;-46
2023/02/22 06:18:46;;;;;;;3.25;0.98;;;23.70;61.70;;;;;;5133770;23;20012;-48
2023/02/22 06:21:09;;;;;;;4.00;1.20;;;23.70;61.60;;;;;;5143215;23;20047;-50
2023/02/22 06:23:31;;;;;;;2.38;0.95;;;23.70;61.40;;;;;;5133424;23;20427;-46
2023/02/22 06:25:53;;;;;;;2.78;1.00;;;23.60;61.30;;;;;;5141949;23;20016;-45
2023/02/22 06:28:16;;;;;;;1.95;0.90;;;23.60;61.20;;;;;;5143078;23;20028;-47
2023/02/22 06:30:41;;;;;;;2.78;0.93;;;23.60;61.10;;;;;;5140722;23;20491;-49
2023/02/22 06:33:04;;;;;;;3.67;1.10;;;23.60;61.10;;;;;;5141855;23;20467;-47
2023/02/22 06:35:26;;;;;;;4.53;0.93;;;23.60;61.00;;;;;;5140687;23;20024;-46
2023/02/22 06:37:49;;;;;;;2.90;0.98;;;23.70;61.00;;;;;;5141421;23;20021;-45
2023/02/22 06:40:12;;;;;;;3.78;1.08;;;23.60;60.80;;;;;;5142910;23;20016;-47
2023/02/22 06:42:35;;;;;;;4.20;1.10;;;23.60;60.90;;;;;;5140950;23;20454;-48
2023/02/22 06:44:57;;;;;;;2.85;0.93;;;23.60;60.90;;;;;;5142583;23;20012;-47
2023/02/22 06:47:19;;;;;;;2.80;1.08;;;23.60;60.90;;;;;;5141343;23;20031;-47
2023/02/22 06:49:42;;;;;;;1.45;0.60;;;23.60;60.70;;;;;;5133575;23;20494;-47
2023/02/22 06:52:05;;;;;;;3.10;0.75;;;23.60;60.60;;;;;;5142906;23;20398;-46
2023/02/22 06:54:28;;;;;;;1.38;0.63;;;23.60;60.50;;;;;;5141426;23;20273;-47
2023/02/22 06:56:50;;;;;;;1.85;0.80;;;23.60;60.40;;;;;;5140948;23;20023;-45
2023/02/22 06:59:12;;;;;;;2.38;0.80;;;23.60;60.30;;;;;;5141124;23;20020;-47
2023/02/22 07:01:35;;;;;;;3.33;1.00;;;23.60;60.30;;;;;;5143009;23;20023;-46
2023/02/22 07:03:58;;;;;;;2.80;0.90;;;23.60;60.30;;;;;;5142004;23;20674;-48
2023/02/22 07:06:20;;;;;;;2.90;0.90;;;23.60;60.20;;;;;;5140833;23;20428;-49
2023/02/22 07:08:43;;;;;;;2.17;0.68;;;23.60;60.20;;;;;;5141426;23;20068;-49
2023/02/22 07:11:05;;;;;;;3.03;0.88;;;23.60;60.10;;;;;;5142604;23;20048;-49
2023/02/22 07:13:28;;;;;;;1.50;0.80;;;23.60;60.20;;;;;;5131657;23;20028;-50
2023/02/22 07:15:52;;;;;;;4.47;1.13;;;23.60;60.20;;;;;;5134402;23;20150;-49
2023/02/22 07:18:15;;;;;;;1.70;0.80;;;23.60;60.20;;;;;;5141868;23;20696;-46
2023/02/22 07:20:37;;;;;;;2.15;0.98;;;23.60;60.80;;;;;;5142561;23;20023;-47
2023/02/22 07:23:00;;;;;;;3.22;1.00;;;23.60;60.00;;;;;;5141702;23;20478;-47
2023/02/22 07:25:23;;;;;;;2.88;0.88;;;23.60;60.80;;;;;;5139387;23;20017;-45
2023/02/22 07:27:46;;;;;;;2.40;1.10;;;23.60;59.90;;;;;;5130626;23;20340;-48
2023/02/22 07:30:16;;;;;;;2.50;0.90;;;23.60;59.90;;;;;;5141745;23;20246;-48
2023/02/22 07:32:39;;;;;;;2.35;0.73;;;23.50;59.60;;;;;;5140483;23;20095;-51
2023/02/22 07:35:01;;;;;;;2.25;0.82;;;23.60;59.70;;;;;;5142017;23;20359;-46
2023/02/22 07:37:24;;;;;;;3.05;0.60;;;23.50;59.60;;;;;;5141658;23;20094;-46
2023/02/22 07:39:46;;;;;;;2.95;0.80;;;23.50;59.60;;;;;;5140772;23;20035;-45
2023/02/22 07:42:09;;;;;;;3.88;1.30;;;23.50;59.60;;;;;;5140726;23;20051;-45
2023/02/22 07:44:31;;;;;;;2.05;0.90;;;23.50;59.30;;;;;;5140591;23;20012;-47
2023/02/22 07:46:54;;;;;;;2.67;0.82;;;23.50;59.60;;;;;;5137544;23;20020;-50
2023/02/22 07:49:17;;;;;;;3.25;0.80;;;23.50;59.30;;;;;;5140281;23;20020;-46
2023/02/22 07:51:39;;;;;;;1.08;0.57;;;23.50;59.50;;;;;;5141130;23;20020;-50
2023/02/22 07:54:01;;;;;;;4.47;0.88;;;23.60;59.70;;;;;;5140133;23;20336;-49
2023/02/22 07:56:24;;;;;;;1.80;0.47;;;23.60;59.70;;;;;;5142328;23;20079;-49
2023/02/22 07:58:46;;;;;;;2.05;0.75;;;23.60;59.70;;;;;;5132488;23;20439;-51
2023/02/22 08:01:09;;;;;;;2.15;0.70;;;23.70;59.80;;;;;;5139699;23;20469;-47
2023/02/22 08:03:35;;;;;;;4.97;1.13;;;23.70;59.80;;;;;;5140450;23;20389;-43
2023/02/22 08:05:59;;;;;;;3.15;1.25;;;23.70;59.40;;;;;;5129620;23;20218;-45
2023/02/22 08:08:22;;;;;;;3.13;1.30;;;23.80;59.10;;;;;;5140723;23;20036;-49
2023/02/22 08:10:45;;;;;;;2.20;1.13;;;23.80;59.10;;;;;;5140193;23;20070;-45
2023/02/22 08:13:07;;;;;;;3.95;1.50;;;23.80;58.80;;;;;;5129569;23;20137;-45
2023/02/22 08:15:38;;;;;;;4.53;2.05;;;23.80;58.90;;;;;;5130678;23;20119;-48
2023/02/22 08:18:02;;;;;;;5.13;1.85;;;23.80;58.90;;;;;;5140079;23;20217;-44
2023/02/22 08:20:25;;;;;;;4.50;2.03;;;23.80;58.90;;;;;;5139549;23;20051;-43
2023/02/22 08:22:47;;;;;;;5.95;2.10;;;23.80;58.80;;;;;;5139505;23;20591;-48
2023/02/22 08:25:10;;;;;;;3.35;1.88;;;23.80;58.80;;;;;;5139794;23;20024;-46
2023/02/22 08:27:33;;;;;;;3.30;1.48;;;23.80;58.80;;;;;;5140336;23;20024;-46
2023/02/22 08:29:56;;;;;;;3.38;1.52;;;23.80;58.80;;;;;;5142046;23;20016;-49
2023/02/22 08:32:19;;;;;;;2.97;1.20;;;23.80;58.80;;;;;;5129058;23;20016;-47
2023/02/22 08:34:42;;;;;;;2.47;1.40;;;23.80;58.90;;;;;;5128730;23;20057;-48
2023/02/22 08:37:05;;;;;;;2.70;0.90;;;23.80;58.90;;;;;;5139776;23;20120;-47
2023/02/22 08:39:27;;;;;;;3.58;1.45;;;23.80;59.00;;;;;;5140231;23;20073;-47
2023/02/22 08:41:49;;;;;;;3.08;0.85;;;23.80;59.00;;;;;;5140288;23;20027;-46
2023/02/22 08:44:12;;;;;;;2.58;1.10;;;23.80;59.00;;;;;;5142469;23;20013;-49
2023/02/22 08:46:34;;;;;;;2.45;0.90;;;23.80;59.00;;;;;;5140196;23;20260;-50
2023/02/22 08:48:56;;;;;;;1.90;0.90;;;23.80;59.10;;;;;;5140729;23;20431;-52
2023/02/22 08:51:20;;;;;;;1.63;0.60;;;23.80;59.20;;;;;;5140764;23;20013;-51
2023/02/22 08:53:43;;;;;;;1.60;0.60;;;23.80;59.20;;;;;;5132210;23;20017;-51
2023/02/22 08:56:05;;;;;;;1.73;0.65;;;23.80;59.20;;;;;;5136241;23;20555;-49
2023/02/22 08:58:28;;;;;;;1.73;0.73;;;23.80;59.20;;;;;;5127683;23;20075;-53
2023/02/22 09:00:50;;;;;;;2.67;0.73;;;23.80;59.20;;;;;;5134738;23;20048;-46
2023/02/22 09:03:14;;;;;;;1.92;1.00;;;23.80;59.20;;;;;;5135348;23;20537;-48
2023/02/22 09:05:36;;;;;;;;;;;23.80;59.20;;;;;;5134554;23;20454;-46
2023/02/22 09:08:00;;;;;;;1.98;0.60;;;23.90;59.30;;;;;;5127044;23;20208;-47
2023/02/22 09:10:28;;;;;;;2.33;1.20;;;23.90;59.20;;;;;;5136123;23;20017;-46
2023/02/22 09:12:54;;;;;;;2.78;0.70;;;23.90;59.30;;;;;;5135604;23;20198;-46
2023/02/22 09:15:16;;;;;;;2.50;0.85;;;23.90;59.20;;;;;;5128236;23;20103;-51
2023/02/22 09:17:39;;;;;;;7.28;1.80;;;24.00;59.20;;;;;;5136576;23;20189;-50
2023/02/22 09:20:01;;;;;;;2.55;0.98;;;24.00;59.50;;;;;;5134670;23;20099;-49
2023/02/22 09:22:24;;;;;;;3.40;1.10;;;24.00;59.70;;;;;;5135163;23;20020;-46
2023/02/22 09:24:46;;;;;;;4.50;1.42;;;24.00;59.70;;;;;;5126440;23;20091;-53
2023/02/22 09:27:11;;;;;;;4.50;1.08;;;24.00;59.90;;;;;;5136857;23;20025;-47
2023/02/22 09:29:33;;;;;;;3.65;1.02;;;24.10;60.00;;;;;;5137348;23;20048;-46
2023/02/22 09:31:56;;;;;;;3.92;1.30;;;24.10;60.20;;;;;;5137224;23;20369;-47
2023/02/22 09:34:21;;;;;;;3.03;1.08;;;24.10;60.20;;;;;;5137290;23;20500;-45
2023/02/22 09:36:45;;;;;;;4.60;1.05;;;24.10;60.90;;;;;;5136018;23;20131;-47
2023/02/22 09:39:09;;;;;;;;;;;24.20;60.50;;;;;;5136875;23;20074;-49
2023/02/22 09:42:10;;;;;;;4.30;1.00;;;24.20;60.50;;;;;;5134722;23;20405;-50
2023/02/22 09:44:43;;;;;;;4.30;1.15;;;24.20;60.40;;;;;;5134166;23;20501;-48
2023/02/22 09:47:09;;;;;;;3.15;1.08;;;24.20;60.40;;;;;;5141254;23;20028;-46
2023/02/22 09:49:39;;;;;;;3.20;1.00;;;24.20;60.30;;;;;;5129318;23;20039;-48
2023/02/22 09:52:04;;;;;;;2.50;0.95;;;24.30;60.40;;;;;;5139284;23;20370;-46
2023/02/22 09:54:33;;;;;;;1.83;0.80;;;24.30;60.40;;;;;;5132120;23;20103;-47
2023/02/22 09:57:02;;;;;;;2.50;0.90;;;24.30;60.30;;;;;;5133960;23;20023;-45
2023/02/22 09:59:31;;;;;;;2.30;0.88;;;24.40;60.40;;;;;;5141586;23;20016;-45
2023/02/22 10:02:27;;;;;;;5.40;1.33;;;24.40;60.30;;;;;;5142116;23;20013;-48
2023/02/22 10:05:17;;;;;;;2.70;0.80;;;24.40;59.70;;;;;;5142378;23;20043;-52
2023/02/22 10:07:53;;;;;;;3.75;1.02;;;24.40;60.10;;;;;;5140241;23;20061;-47
2023/02/22 10:10:22;;;;;;;3.05;0.93;;;24.40;60.10;;;;;;5137128;23;20020;-44
2023/02/22 10:12:50;;;;;;;5.65;1.17;;;24.40;60.00;;;;;;5141093;23;20043;-48
2023/02/22 10:15:26;;;;;;;2.15;0.80;;;24.40;60.60;;;;;;5138915;23;20016;-46
2023/02/22 10:18:05;;;;;;;4.10;1.00;;;24.40;59.80;;;;;;5131426;23;20017;-50
2023/02/22 10:20:45;;;;;;;2.15;0.85;;;24.40;59.80;;;;;;5139528;23;20020;-44
2023/02/22 10:23:27;;;;;;;3.28;0.95;;;24.40;59.60;;;;;;5132207;23;20028;-46
2023/02/22 10:25:56;;;;;;;3.65;0.90;;;24.50;59.60;;;;;;5141386;23;20013;-50
2023/02/22 10:28:25;;;;;;;2.03;0.70;;;24.50;59.50;;;;;;5139573;23;20024;-47
2023/02/22 10:30:55;;;;;;;2.75;0.80;;;24.50;59.60;;;;;;5139571;23;20017;-48
2023/02/22 10:33:22;;;;;;;2.42;0.90;;;24.50;59.50;;;;;;5139265;23;20028;-45
2023/02/22 10:35:46;;;;;;;1.38;0.73;;;24.50;59.40;;;;;;5135393;23;20025;-44
2023/02/22 10:38:19;;;;;;;4.60;1.05;;;24.50;59.40;;;;;;5142430;23;20055;-48
2023/02/22 10:40:54;;;;;;;2.13;0.98;;;24.50;59.40;;;;;;5127491;23;20016;-50
2023/02/22 10:43:16;;;;;;;2.08;0.80;;;24.50;59.40;;;;;;5138895;23;20017;-45
2023/02/22 10:45:39;;;;;;;1.67;0.60;;;24.50;59.20;;;;;;5141323;23;20024;-52
2023/02/22 10:48:10;;;;;;;3.47;1.10;;;24.50;59.30;;;;;;5140175;23;20029;-49
2023/02/22 10:50:34;;;;;;;3.40;0.88;;;24.50;59.20;;;;;;5140175;23;20012;-45
2023/02/22 10:52:56;;;;;;;3.50;1.13;;;24.50;59.00;;;;;;5142708;23;20074;-46
2023/02/22 10:55:19;;;;;;;5.40;1.40;;;24.50;58.80;;;;;;5142900;23;20016;-49
2023/02/22 10:57:45;;;;;;;3.70;1.17;;;24.50;59.00;;;;;;5139515;23;20043;-49
2023/02/22 11:00:25;;;;;;;1.52;0.82;;;24.50;59.00;;;;;;5141987;23;20491;-49
2023/02/22 11:02:59;;;;;;;3.75;1.05;;;24.50;59.10;;;;;;5130221;23;20442;-46
2023/02/22 11:05:37;;;;;;;2.00;0.88;;;24.50;59.20;;;;;;5132107;23;20490;-46
2023/02/22 11:08:31;;;;;;;2.72;1.00;;;24.50;59.20;;;;;;5141934;23;20476;-48
2023/02/22 11:11:02;;;;;;;3.58;0.88;;;24.60;59.20;;;;;;5133155;23;20016;-48
2023/02/22 11:13:36;;;;;;;18.00;2.75;;;24.60;59.30;;;;;;5133809;23;20023;-50
2023/02/22 11:16:19;;;;;;;23.98;3.65;;;24.60;59.10;;;;;;5136584;23;20020;-49
2023/02/22 11:18:43;;;;;;;17.92;2.80;;;24.60;59.30;;;;;;5138892;23;20145;-48
2023/02/22 11:21:10;;;;;;;22.58;3.10;;;24.60;59.20;;;;;;5139924;23;20054;-49
2023/02/22 11:23:34;;;;;;;14.90;2.40;;;24.60;59.20;;;;;;5138634;23;20017;-51
2023/02/22 11:26:00;;;;;;;;;;;24.60;59.20;;;;;;5140281;23;20085;-52
2023/02/22 11:28:31;;;;;;;13.77;1.50;;;24.70;59.20;;;;;;5139265;23;20365;-48
2023/02/22 11:30:54;;;;;;;6.60;1.40;;;24.60;59.10;;;;;;5139688;23;20016;-53
2023/02/22 11:33:22;;;;;;;9.10;1.67;;;24.70;59.20;;;;;;5139944;23;20095;-52
2023/02/22 11:35:58;;;;;;;7.43;1.85;;;24.70;59.30;;;;;;5132378;23;20297;-48
2023/02/22 11:38:32;;;;;;;6.78;1.40;;;24.70;59.20;;;;;;5127505;23;20063;-48
2023/02/22 11:41:23;;;;;;;6.43;1.45;;;24.70;59.30;;;;;;5138982;23;20016;-51
2023/02/22 11:43:51;;;;;;;6.28;1.30;;;24.80;59.30;;;;;;5140217;23;20031;-46
2023/02/22 11:46:25;;;;;;;20.65;1.60;;;24.70;59.20;;;;;;5138497;23;20095;-47
2023/02/22 11:49:10;;;;;;;7.80;1.80;;;24.80;59.30;;;;;;5139346;23;20557;-50
2023/02/22 11:51:43;;;;;;;3.40;0.93;;;24.70;59.20;;;;;;5139467;23;20024;-52
2023/02/22 11:54:24;;;;;;;9.27;1.90;;;24.80;59.20;;;;;;5139529;23;20095;-49
2023/02/22 11:56:50;;;;;;;11.07;1.88;;;24.80;59.30;;;;;;5133125;23;20531;-51
2023/02/22 11:59:31;;;;;;;4.50;0.80;;;24.80;59.20;;;;;;5126954;23;20039;-52
2023/02/22 12:02:35;;;;;;;3.67;1.05;;;24.80;59.20;;;;;;5138223;23;20100;-52
2023/02/22 12:05:25;;;;;;;4.15;1.05;;;24.70;59.20;;;;;;5130181;23;20204;-51
2023/02/22 12:08:24;;;;;;;5.97;1.33;;;24.70;59.40;;;;;;5141660;23;20209;-48
2023/02/22 12:10:58;;;;;;;5.82;1.10;;;24.70;59.50;;;;;;5131808;23;20432;-46
2023/02/22 12:13:46;;;;;;;4.40;1.25;;;24.70;59.50;;;;;;5131637;23;20052;-49
2023/02/22 12:16:42;;;;;;;3.90;1.10;;;24.70;59.40;;;;;;5142458;23;20113;-51
2023/02/22 12:19:40;;;;;;;3.13;0.88;;;24.70;59.40;;;;;;5133141;23;20473;-46
2023/02/22 12:22:23;;;;;;;7.22;1.23;;;24.70;59.40;;;;;;5130341;23;20025;-53
2023/02/22 12:24:54;;;;;;;8.35;1.08;;;24.70;59.50;;;;;;5138379;23;20838;-47
2023/02/22 12:27:55;;;;;;;2.80;1.00;;;24.70;59.60;;;;;;5139264;23;20458;-48
2023/02/22 12:30:38;;;;;;;4.63;0.93;;;24.70;59.50;;;;;;5131035;23;20367;-56
2023/02/22 12:33:11;;;;;;;3.63;1.20;;;24.70;59.80;;;;;;5140832;23;20577;-47
2023/02/22 12:35:42;;;;;;;7.63;1.77;;;24.70;59.80;;;;;;5141540;23;20028;-50
2023/02/22 12:38:21;;;;;;;5.60;1.27;;;24.60;59.90;;;;;;5128891;23;20055;-51
2023/02/22 12:41:04;;;;;;;5.05;0.85;;;24.70;59.90;;;;;;5131959;23;20017;-51
2023/02/22 12:43:34;;;;;;;6.82;1.30;;;24.60;59.90;;;;;;5139391;23;20051;-50
2023/02/22 12:46:43;;;;;;;6.13;1.20;;;24.60;60.00;;;;;;5128708;23;20016;-48
2023/02/22 12:49:25;;;;;;;5.78;1.00;;;24.60;59.90;;;;;;5029722;23;20056;-49
2023/02/22 12:52:04;;;;;;;3.90;0.90;;;24.60;59.80;;;;;;5140479;23;20028;-48
2023/02/22 12:54:45;;;;;;;2.90;0.90;;;24.60;59.80;;;;;;5141006;23;20021;-49